TX49 weather

Biggin Hill Airport
Hockley, Texas, United States

Public forecast

Using degrees Fahrenheit for public forecast. Weather courtesy of forecast.io.

METAR (pilot weather report)

Closest report is David Wayne Hooks Memorial Airport, 16.3 nm (30.2 km) ESE. Retrieved 2019/09/22 06:53 UTC (59 minutes ago):

KDWH 220653Z AUTO 00000KT 5SM BR FEW021 23/22 A3003 RMK AO2 SLP165 T02330217

TAF (pilot weather forecast)

Forecast is more than 12 hours old.

Closest forecast is David Wayne Hooks Memorial Airport, 16.3 nm (30.2 km) ESE. Retrieved 2017/02/07 12:51 UTC (3 years ago):

TAF KDWH 071148Z 0712/0812 20009G15KT P6SM SCT022 OVC030 TEMPO 0712/0715 BKN018 FM071500 23010KT P6SM BKN015 FM071900 25010KT P6SM SCT025 FM080100 22005KT P6SM SCT250 TEMPO 0807/0809 3SM BR BKN013 FM080900 VRB03KT 2SM BR OVC008